createdAt,value
2022-12-17T00:01:55.685Z,93.30
2022-12-17T00:04:42.996Z,92.50
2022-12-17T00:07:35.266Z,93.10
2022-12-17T00:10:26.676Z,92.40
2022-12-17T00:13:12.706Z,92.20
2022-12-17T00:15:58.260Z,92.70
2022-12-17T00:18:43.492Z,92.80
2022-12-17T00:21:29.805Z,93.20
2022-12-17T00:24:15.373Z,92.80
2022-12-17T00:27:00.721Z,92.70
2022-12-17T00:29:46.081Z,93.90
2022-12-17T00:32:31.288Z,94.30
2022-12-17T00:35:16.687Z,94.40
2022-12-17T00:38:04.888Z,93.60
2022-12-17T00:40:50.243Z,93.60
2022-12-17T00:43:35.810Z,92.90
2022-12-17T00:46:22.860Z,92.50
2022-12-17T00:49:08.984Z,92.20
2022-12-17T00:51:54.451Z,92.00
2022-12-17T00:54:40.304Z,93.00
2022-12-17T00:57:25.564Z,93.40
2022-12-17T01:00:25.759Z,93.30
2022-12-17T01:03:28.986Z,93.20
2022-12-17T01:06:14.747Z,93.30
2022-12-17T01:09:07.131Z,92.50
2022-12-17T01:11:56.604Z,92.90
2022-12-17T01:14:42.531Z,92.30
2022-12-17T01:17:28.151Z,92.40
2022-12-17T01:20:13.414Z,92.80
2022-12-17T01:22:59.123Z,92.40
2022-12-17T01:25:52.153Z,92.40
2022-12-17T01:28:43.546Z,92.80
2022-12-17T01:31:34.655Z,92.50
2022-12-17T01:34:21.354Z,92.80
2022-12-17T01:37:06.802Z,92.90
2022-12-17T01:39:52.047Z,92.80
2022-12-17T01:42:39.453Z,92.90
2022-12-17T01:45:32.489Z,93.10
2022-12-17T01:48:21.408Z,92.80
2022-12-17T01:51:12.552Z,92.70
2022-12-17T01:54:08.461Z,92.50
2022-12-17T01:56:58.208Z,92.20
2022-12-17T02:00:07.853Z,92.40
2022-12-17T02:02:59.411Z,92.70
2022-12-17T02:06:01.358Z,92.20
2022-12-17T02:08:58.775Z,92.40
2022-12-17T02:12:03.040Z,92.90
2022-12-17T02:14:48.274Z,93.30
2022-12-17T02:17:46.253Z,92.50
2022-12-17T02:20:38.092Z,92.70
2022-12-17T02:23:42.366Z,92.00
2022-12-17T02:26:50.276Z,92.00
2022-12-17T02:29:37.032Z,91.80
2022-12-17T02:32:24.989Z,91.60
2022-12-17T02:35:11.221Z,92.00
2022-12-17T02:37:56.994Z,92.00
2022-12-17T02:40:43.747Z,92.60
2022-12-17T02:43:30.163Z,92.20
2022-12-17T02:46:15.711Z,92.30
2022-12-17T02:49:01.202Z,92.20
2022-12-17T02:51:50.506Z,92.00
2022-12-17T02:54:35.809Z,91.30
2022-12-17T02:57:23.084Z,91.70
2022-12-17T03:00:09.629Z,91.50
2022-12-17T03:02:56.147Z,91.30
2022-12-17T03:05:45.724Z,91.50
2022-12-17T03:08:31.902Z,92.00
2022-12-17T03:11:17.383Z,91.10
2022-12-17T03:14:02.949Z,91.00
2022-12-17T03:16:50.216Z,91.20
2022-12-17T03:19:35.916Z,91.40
2022-12-17T03:22:24.584Z,92.00
2022-12-17T03:25:12.815Z,91.90
2022-12-17T03:27:58.514Z,91.40
2022-12-17T03:30:48.683Z,91.90
2022-12-17T03:33:35.430Z,91.40
2022-12-17T03:36:21.395Z,91.60
2022-12-17T03:39:06.812Z,92.10
2022-12-17T03:41:52.120Z,92.30
2022-12-17T03:44:37.877Z,92.70
2022-12-17T03:47:34.080Z,92.70
2022-12-17T03:50:19.530Z,92.90
2022-12-17T03:53:04.856Z,92.50
2022-12-17T03:55:50.374Z,92.40
2022-12-17T03:58:35.938Z,91.70
2022-12-17T04:01:21.663Z,91.40
2022-12-17T04:04:07.205Z,91.30
2022-12-17T04:06:58.611Z,91.60
2022-12-17T04:09:44.126Z,91.40
2022-12-17T04:12:35.396Z,92.20
2022-12-17T04:15:21.706Z,91.50
2022-12-17T04:18:07.938Z,91.10
2022-12-17T04:21:06.300Z,90.90
2022-12-17T04:23:51.704Z,91.50
2022-12-17T04:26:37.097Z,91.60
2022-12-17T04:29:22.703Z,92.00
2022-12-17T04:32:07.973Z,92.00
2022-12-17T04:34:53.159Z,92.20
2022-12-17T04:37:42.151Z,92.00
2022-12-17T04:40:29.276Z,91.60
2022-12-17T04:43:14.956Z,90.90
2022-12-17T04:46:15.579Z,90.20
2022-12-17T04:49:02.583Z,90.20
2022-12-17T04:51:48.306Z,90.00
2022-12-17T04:54:33.850Z,90.30
2022-12-17T04:57:19.296Z,90.40
2022-12-17T05:00:04.944Z,90.90
2022-12-17T05:02:50.373Z,92.20
2022-12-17T05:05:36.055Z,92.50
2022-12-17T05:08:21.503Z,91.40
2022-12-17T05:11:13.363Z,91.60
2022-12-17T05:13:58.944Z,91.60
2022-12-17T05:16:44.617Z,92.40
2022-12-17T05:19:30.099Z,91.90
2022-12-17T05:22:15.511Z,92.80
2022-12-17T05:25:00.956Z,93.20
2022-12-17T05:27:46.770Z,93.40
2022-12-17T05:30:32.347Z,93.10
2022-12-17T05:33:22.520Z,92.80
2022-12-17T05:36:07.776Z,91.60
2022-12-17T05:38:56.239Z,91.20
2022-12-17T05:41:41.938Z,91.40
2022-12-17T05:44:27.205Z,90.80
2022-12-17T05:47:12.875Z,90.20
2022-12-17T05:49:58.234Z,90.00
2022-12-17T05:52:47.404Z,90.70
2022-12-17T05:55:33.093Z,91.20
2022-12-17T05:58:27.586Z,91.30
2022-12-17T06:01:23.034Z,90.70
2022-12-17T06:04:08.935Z,90.80
2022-12-17T06:06:54.362Z,91.20
2022-12-17T06:09:39.659Z,92.20
2022-12-17T06:12:25.255Z,92.20
2022-12-17T06:15:10.766Z,92.40
2022-12-17T06:17:56.085Z,92.90
2022-12-17T06:20:41.354Z,92.70
2022-12-17T06:23:29.619Z,92.00
2022-12-17T06:26:16.191Z,91.50
2022-12-17T06:29:01.795Z,92.40
2022-12-17T06:31:47.593Z,92.70
2022-12-17T06:34:36.848Z,91.40
2022-12-17T06:37:22.235Z,91.20
2022-12-17T06:40:08.003Z,91.00
2022-12-17T06:43:09.775Z,90.60
2022-12-17T06:46:11.746Z,90.40
2022-12-17T06:48:57.540Z,90.60
2022-12-17T06:51:42.686Z,91.20
2022-12-17T06:54:28.235Z,90.90
2022-12-17T06:57:13.701Z,90.90
2022-12-17T06:59:58.960Z,91.80
2022-12-17T07:02:44.263Z,92.50
2022-12-17T07:05:31.747Z,93.00
2022-12-17T07:08:19.432Z,92.30
2022-12-17T07:11:04.889Z,92.20
2022-12-17T07:13:50.365Z,91.90
2022-12-17T07:16:36.214Z,91.70
2022-12-17T07:19:27.027Z,91.80
2022-12-17T07:22:13.214Z,90.30
2022-12-17T07:24:58.797Z,90.00
2022-12-17T07:27:44.327Z,90.80
2022-12-17T07:30:30.733Z,90.60
2022-12-17T07:33:21.288Z,90.30
2022-12-17T07:36:07.333Z,90.20
2022-12-17T07:38:56.866Z,90.20
2022-12-17T07:41:42.528Z,90.10
2022-12-17T07:44:28.023Z,90.70
2022-12-17T07:47:13.472Z,91.20
2022-12-17T07:49:58.748Z,90.50
2022-12-17T07:52:44.138Z,90.70
2022-12-17T07:55:36.512Z,91.20
2022-12-17T07:58:25.311Z,91.30
2022-12-17T08:01:10.798Z,92.00
2022-12-17T08:03:56.657Z,92.20
2022-12-17T08:06:42.334Z,91.90
2022-12-17T08:09:27.862Z,91.00
2022-12-17T08:12:13.409Z,90.90
2022-12-17T08:14:59.130Z,90.30
2022-12-17T08:17:44.503Z,89.70
2022-12-17T08:20:30.309Z,89.70
2022-12-17T08:23:24.927Z,88.70
2022-12-17T08:26:10.853Z,88.30
2022-12-17T08:28:56.470Z,88.40
2022-12-17T08:31:43.764Z,88.10
2022-12-17T08:34:29.756Z,88.20
2022-12-17T08:37:15.356Z,88.00
2022-12-17T08:40:00.529Z,88.00
2022-12-17T08:42:46.187Z,87.50
2022-12-17T08:45:33.860Z,86.70
2022-12-17T08:48:34.475Z,86.10
2022-12-17T08:51:20.600Z,85.80
2022-12-17T08:54:06.318Z,86.40
2022-12-17T08:56:51.917Z,85.80
2022-12-17T08:59:37.704Z,85.50
2022-12-17T09:02:23.248Z,84.30
2022-12-17T09:05:08.740Z,84.70
2022-12-17T09:08:07.955Z,84.70
2022-12-17T09:10:53.632Z,84.70
2022-12-17T09:13:39.341Z,84.10
2022-12-17T09:16:24.959Z,85.10
2022-12-17T09:19:10.512Z,84.40
2022-12-17T09:21:56.186Z,83.90
2022-12-17T09:24:41.996Z,84.40
2022-12-17T09:27:27.377Z,84.40
2022-12-17T09:30:12.779Z,83.50
2022-12-17T09:32:58.158Z,84.20
2022-12-17T09:35:43.660Z,83.30
2022-12-17T09:38:33.429Z,83.30
2022-12-17T09:41:37.699Z,83.50
2022-12-17T09:44:53.160Z,82.90
2022-12-17T09:48:07.734Z,82.70
2022-12-17T09:50:53.249Z,82.30
2022-12-17T09:53:56.110Z,82.90
2022-12-17T09:56:48.717Z,82.60
2022-12-17T09:59:47.385Z,82.60
2022-12-17T10:02:43.816Z,82.70
2022-12-17T10:05:43.243Z,84.00
2022-12-17T10:08:37.369Z,85.90
2022-12-17T10:11:45.262Z,86.70
2022-12-17T10:14:42.891Z,87.50
2022-12-17T10:17:35.429Z,87.60
2022-12-17T10:20:22.557Z,87.00
2022-12-17T10:23:10.444Z,85.70
2022-12-17T10:26:10.580Z,86.40
2022-12-17T10:28:56.379Z,86.20
2022-12-17T10:31:46.959Z,85.60
2022-12-17T10:34:38.659Z,85.70
2022-12-17T10:37:38.809Z,85.70
2022-12-17T10:40:38.205Z,86.70
2022-12-17T10:43:50.456Z,86.90
2022-12-17T10:46:44.700Z,86.30
2022-12-17T10:49:38.521Z,86.80
2022-12-17T10:52:43.102Z,86.10
2022-12-17T10:56:05.669Z,86.80
2022-12-17T10:58:51.197Z,86.40
2022-12-17T11:01:42.440Z,86.70
2022-12-17T11:04:44.326Z,86.70
2022-12-17T11:07:41.737Z,87.20
2022-12-17T11:10:34.896Z,87.40
2022-12-17T11:14:03.717Z,86.90
2022-12-17T11:17:07.570Z,87.30
2022-12-17T11:20:11.213Z,87.20
2022-12-17T11:23:05.604Z,87.20
2022-12-17T11:26:15.023Z,88.00
2022-12-17T11:29:00.605Z,87.80
2022-12-17T11:31:46.291Z,88.20
2022-12-17T11:34:57.529Z,87.90
2022-12-17T11:37:59.910Z,88.30
2022-12-17T11:40:59.351Z,89.30
2022-12-17T11:43:51.818Z,89.90
2022-12-17T11:46:47.067Z,88.90
2022-12-17T11:49:35.547Z,88.50
2022-12-17T11:52:33.838Z,88.20
2022-12-17T11:55:31.365Z,88.40
2022-12-17T11:58:41.391Z,88.10
2022-12-17T12:01:54.570Z,87.10
2022-12-17T12:05:17.990Z,87.10
2022-12-17T12:08:12.089Z,87.00
2022-12-17T12:11:15.807Z,86.50
2022-12-17T12:14:31.374Z,86.20
2022-12-17T12:17:37.117Z,87.00
2022-12-17T12:20:45.086Z,86.50
2022-12-17T12:23:56.195Z,85.80
2022-12-17T12:26:47.359Z,85.90
2022-12-17T12:29:51.366Z,85.50
2022-12-17T12:33:13.260Z,87.10
2022-12-17T12:35:59.767Z,87.50
2022-12-17T12:39:00.731Z,88.60
2022-12-17T12:42:11.113Z,88.70
2022-12-17T12:45:11.660Z,88.40
2022-12-17T12:48:14.924Z,88.50
2022-12-17T12:51:16.599Z,86.90
2022-12-17T12:54:02.137Z,87.30
2022-12-17T12:56:52.603Z,87.00
2022-12-17T12:59:47.944Z,88.10
2022-12-17T13:02:41.131Z,88.60
2022-12-17T13:05:36.044Z,88.10
2022-12-17T13:08:08.865Z,88.60
2022-12-17T13:10:37.065Z,88.60
2022-12-17T13:13:21.378Z,87.80
2022-12-17T13:15:52.492Z,88.80
2022-12-17T13:18:35.269Z,88.20
2022-12-17T13:21:06.174Z,89.90
2022-12-17T13:23:37.996Z,90.10
2022-12-17T13:26:21.955Z,90.50
2022-12-17T13:28:59.783Z,89.30
2022-12-17T13:31:29.836Z,90.20
2022-12-17T13:34:12.398Z,90.40
2022-12-17T13:37:02.370Z,90.80
2022-12-17T13:39:42.902Z,91.00
2022-12-17T13:42:45.581Z,90.70
2022-12-17T13:45:16.740Z,91.70
2022-12-17T13:47:43.526Z,92.10
2022-12-17T13:50:33.988Z,92.00
2022-12-17T13:53:13.004Z,92.00
2022-12-17T13:55:47.387Z,92.90
2022-12-17T13:58:30.410Z,93.00
2022-12-17T14:01:14.641Z,93.40
2022-12-17T14:04:05.875Z,93.40
2022-12-17T14:06:37.622Z,94.00
2022-12-17T14:09:05.296Z,93.70
2022-12-17T14:11:51.896Z,93.20
2022-12-17T14:14:21.820Z,93.90
2022-12-17T14:16:50.927Z,94.80
2022-12-17T14:19:21.399Z,94.60
2022-12-17T14:21:48.595Z,94.80
2022-12-17T14:24:27.078Z,95.00
2022-12-17T14:26:56.719Z,95.40
2022-12-17T14:29:31.377Z,95.00
2022-12-17T14:32:21.278Z,94.90
2022-12-17T14:34:48.171Z,94.70
2022-12-17T14:37:22.847Z,94.00
2022-12-17T14:39:50.334Z,93.70
2022-12-17T14:42:26.346Z,93.60
2022-12-17T14:45:07.832Z,93.20
2022-12-17T14:47:36.786Z,93.20
2022-12-17T14:50:23.309Z,92.80
2022-12-17T14:52:55.521Z,92.90
2022-12-17T14:55:30.739Z,92.90
2022-12-17T14:58:20.984Z,93.20
2022-12-17T15:00:53.223Z,92.90
2022-12-17T15:03:24.280Z,93.50
2022-12-17T15:06:00.844Z,93.30
2022-12-17T15:08:41.887Z,93.10
2022-12-17T15:11:21.129Z,92.30
2022-12-17T15:13:51.608Z,92.40
2022-12-17T15:16:19.719Z,92.70
2022-12-17T15:18:46.614Z,92.60
2022-12-17T15:21:16.324Z,92.50
2022-12-17T15:23:44.243Z,92.30
2022-12-17T15:26:11.549Z,92.10
2022-12-17T15:28:38.694Z,92.00
2022-12-17T15:31:05.838Z,92.30
2022-12-17T15:33:32.797Z,92.40
2022-12-17T15:35:59.671Z,92.60
2022-12-17T15:38:26.525Z,92.50
2022-12-17T15:40:53.538Z,92.90
2022-12-17T15:43:20.385Z,93.00
2022-12-17T15:45:49.537Z,93.30
2022-12-17T15:48:19.356Z,93.60
2022-12-17T15:50:47.280Z,93.50
2022-12-17T15:53:14.513Z,92.00
2022-12-17T15:55:41.535Z,91.90
2022-12-17T15:58:10.499Z,92.70
2022-12-17T16:00:40.405Z,92.90
2022-12-17T16:03:08.228Z,93.30
2022-12-17T16:05:35.025Z,93.30
2022-12-17T16:08:02.588Z,93.20
2022-12-17T16:10:30.314Z,93.60
2022-12-17T16:12:57.602Z,93.70
2022-12-17T16:15:24.398Z,94.00
2022-12-17T16:17:51.311Z,93.50
2022-12-17T16:20:18.096Z,93.70
2022-12-17T16:22:44.813Z,94.10
2022-12-17T16:25:12.116Z,94.30
2022-12-17T16:27:42.541Z,94.70
2022-12-17T16:30:11.183Z,94.70
2022-12-17T16:32:38.594Z,94.60
2022-12-17T16:35:06.437Z,94.10
2022-12-17T16:37:33.243Z,94.40
2022-12-17T16:40:00.696Z,94.40
2022-12-17T16:42:28.003Z,93.80
2022-12-17T16:44:54.741Z,93.80
2022-12-17T16:47:21.515Z,93.80
2022-12-17T16:49:50.588Z,93.70
2022-12-17T16:52:17.603Z,93.90
2022-12-17T16:54:44.430Z,94.00
2022-12-17T16:57:11.327Z,93.90
2022-12-17T16:59:38.101Z,93.50
2022-12-17T17:02:05.068Z,93.10
2022-12-17T17:04:32.024Z,93.10
2022-12-17T17:06:58.806Z,93.60
2022-12-17T17:09:38.651Z,93.90
2022-12-17T17:12:05.964Z,94.10
2022-12-17T17:14:32.647Z,93.60
2022-12-17T17:16:59.457Z,93.00
2022-12-17T17:19:26.298Z,92.50
2022-12-17T17:22:07.651Z,93.00
2022-12-17T17:24:41.439Z,92.90
2022-12-17T17:27:08.204Z,93.60
2022-12-17T17:29:34.901Z,93.90
2022-12-17T17:32:10.650Z,93.80
2022-12-17T17:34:45.721Z,93.80
2022-12-17T17:37:19.406Z,94.00
2022-12-17T17:39:46.163Z,94.50
2022-12-17T17:42:13.174Z,94.80
2022-12-17T17:44:40.102Z,95.20
2022-12-17T17:47:07.048Z,95.20
2022-12-17T17:49:33.869Z,95.60
2022-12-17T17:52:10.589Z,95.80
2022-12-17T17:54:39.485Z,95.30
2022-12-17T17:57:06.955Z,94.70
2022-12-17T17:59:34.522Z,94.20
2022-12-17T18:02:02.745Z,93.40
2022-12-17T18:04:30.293Z,92.50
2022-12-17T18:09:43.781Z,93.60
2022-12-17T18:12:33.185Z,93.20
2022-12-17T18:15:19.304Z,93.10
2022-12-17T18:17:49.845Z,93.50
2022-12-17T18:20:30.731Z,93.90
2022-12-17T18:22:57.524Z,94.10
2022-12-17T18:25:24.496Z,93.80
2022-12-17T18:27:54.628Z,93.10
2022-12-17T18:30:22.573Z,92.10
2022-12-17T18:32:49.308Z,92.20
2022-12-17T18:35:17.283Z,92.30
2022-12-17T18:37:44.201Z,92.60
2022-12-17T18:40:11.519Z,92.80
2022-12-17T18:42:56.989Z,93.60
2022-12-17T18:45:25.942Z,94.40
2022-12-17T18:47:52.674Z,94.70
2022-12-17T18:50:19.434Z,95.00
2022-12-17T18:52:46.154Z,95.70
2022-12-17T18:55:12.869Z,95.60
2022-12-17T18:57:40.838Z,95.70
2022-12-17T19:00:08.404Z,95.30
2022-12-17T19:02:35.340Z,95.50
2022-12-17T19:05:02.140Z,95.40
2022-12-17T19:07:28.898Z,95.40
2022-12-17T19:09:55.757Z,95.30
2022-12-17T19:12:35.818Z,95.50
2022-12-17T19:15:07.186Z,95.90
2022-12-17T19:17:33.924Z,95.80
2022-12-17T19:20:00.634Z,95.70
2022-12-17T19:22:27.384Z,95.60
2022-12-17T19:25:01.875Z,95.20
2022-12-17T19:27:28.800Z,95.20
2022-12-17T19:29:56.945Z,94.50
2022-12-17T19:32:24.850Z,94.50
2022-12-17T19:34:51.559Z,94.10
2022-12-17T19:37:18.291Z,93.90
2022-12-17T19:39:45.137Z,93.60
2022-12-17T19:42:24.910Z,93.60
2022-12-17T19:44:56.556Z,94.00
2022-12-17T19:47:24.096Z,94.10
2022-12-17T19:49:50.964Z,94.10
2022-12-17T19:52:17.760Z,93.60
2022-12-17T19:54:44.805Z,93.80
2022-12-17T19:57:11.572Z,94.10
2022-12-17T19:59:38.354Z,94.30
2022-12-17T20:02:05.428Z,94.30
2022-12-17T20:04:41.937Z,94.30
2022-12-17T20:07:15.710Z,94.30
2022-12-17T20:09:44.573Z,94.30
2022-12-17T20:12:12.150Z,94.30
2022-12-17T20:14:39.369Z,94.50
2022-12-17T20:17:06.528Z,94.60
2022-12-17T20:19:34.642Z,94.10
2022-12-17T20:22:09.357Z,94.10
2022-12-17T20:24:37.417Z,94.00
2022-12-17T20:27:04.684Z,94.00
2022-12-17T20:29:44.942Z,94.00
2022-12-17T20:32:11.709Z,94.20
2022-12-17T20:34:38.612Z,94.00
2022-12-17T20:37:05.338Z,94.20
2022-12-17T20:39:32.353Z,94.60
2022-12-17T20:42:11.969Z,95.20
2022-12-17T20:44:39.493Z,95.30
2022-12-17T20:47:06.323Z,95.50
2022-12-17T20:49:33.347Z,95.80
2022-12-17T20:52:00.196Z,95.90
2022-12-17T20:54:34.014Z,96.30
2022-12-17T20:57:04.561Z,96.40
2022-12-17T20:59:31.534Z,96.30
2022-12-17T21:01:58.353Z,96.40
2022-12-17T21:04:25.227Z,96.60
2022-12-17T21:06:52.041Z,96.60
2022-12-17T21:09:20.109Z,96.60
2022-12-17T21:11:47.059Z,96.60
2022-12-17T21:14:16.394Z,96.60
2022-12-17T21:16:43.701Z,96.60
2022-12-17T21:19:14.749Z,96.60
2022-12-17T21:21:54.043Z,96.30
2022-12-17T21:24:21.904Z,95.70
2022-12-17T21:26:48.749Z,95.10
2022-12-17T21:29:16.839Z,95.00
2022-12-17T21:31:52.049Z,95.10
2022-12-17T21:34:22.514Z,95.10
2022-12-17T21:36:50.851Z,95.90
2022-12-17T21:39:18.408Z,96.10
2022-12-17T21:42:08.687Z,96.20
2022-12-17T21:44:41.543Z,95.70
2022-12-17T21:47:14.742Z,95.70
2022-12-17T21:49:41.425Z,95.30
2022-12-17T21:52:09.204Z,94.90
2022-12-17T21:54:38.182Z,95.00
2022-12-17T21:57:19.140Z,94.60
2022-12-17T21:59:46.527Z,94.60
2022-12-17T22:02:27.165Z,94.60
2022-12-17T22:04:57.847Z,94.20
2022-12-17T22:07:35.277Z,94.10
2022-12-17T22:10:18.238Z,94.00
2022-12-17T22:13:29.023Z,93.10
2022-12-17T22:16:12.860Z,93.20
2022-12-17T22:18:46.149Z,92.60
2022-12-17T22:21:20.425Z,92.60
2022-12-17T22:23:49.448Z,92.20
2022-12-17T22:26:25.105Z,92.00
2022-12-17T22:28:56.154Z,92.10
2022-12-17T22:31:43.788Z,92.70
2022-12-17T22:35:11.896Z,92.70
2022-12-17T22:41:23.691Z,93.40
2022-12-17T22:43:09.094Z,93.00
2022-12-17T22:44:46.464Z,93.10
2022-12-17T22:45:45.374Z,93.60
2022-12-17T22:48:13.144Z,94.00
2022-12-17T22:50:42.607Z,93.80
2022-12-17T22:53:19.282Z,93.80
2022-12-17T22:55:46.917Z,93.50
2022-12-17T22:58:14.050Z,93.50
2022-12-17T23:00:40.878Z,92.90
2022-12-17T23:03:07.763Z,92.10
2022-12-17T23:05:34.796Z,92.60
2022-12-17T23:08:01.529Z,92.90
2022-12-17T23:10:28.678Z,92.90
2022-12-17T23:12:56.082Z,93.20
2022-12-17T23:15:27.816Z,93.60
2022-12-17T23:17:57.079Z,93.80
2022-12-17T23:20:27.120Z,93.80
2022-12-17T23:22:54.214Z,94.20
2022-12-17T23:25:21.839Z,94.20
2022-12-17T23:27:48.927Z,94.10
2022-12-17T23:30:17.088Z,94.00
2022-12-17T23:32:47.242Z,94.10
2022-12-17T23:35:14.735Z,93.80
2022-12-17T23:37:42.049Z,93.50
2022-12-17T23:40:10.365Z,94.00
2022-12-17T23:42:37.459Z,95.20
2022-12-17T23:45:12.100Z,95.30
2022-12-17T23:47:41.038Z,95.90
2022-12-17T23:50:09.621Z,96.60
2022-12-17T23:52:37.293Z,96.60
2022-12-17T23:55:04.381Z,96.40
2022-12-17T23:57:31.066Z,96.20
